Terminal Aerodrome Forecast
Issued by NWS

Home | Current Version | Previous Version | Text Only | Print | Product List | Glossary On
Versions: 1 2 3 4 5 6 7 8 9 10 11 12 13 14
000
FTUS46 KSEW 231130
TAFCLM
TAF
KCLM 231130Z 2312/2412 29008KT P6SM OVC014
      TEMPO 2313/2316 3SM BR OVC006
     FM231900 32010KT P6SM SCT008 OVC017
     FM232100 32011KT P6SM FEW250=

USA.gov is the U.S. government's official web portal to all federal, state and local government web resources and services.